Coldwater, MI

3:41 PM EDT on July 25, 2017 (GMT -0400)
Branch County Memorial

Weather History for KOEB - December, 2012

Change the Weather History Date:

Friday, December 21, 2012

  Actual Average (KJYM) Record (KJYM)
Temperature  
Mean Temperature 32 °F -  
Max Temperature 33 °F 32 °F 60 °F (1967)
Min Temperature 32 °F 18 °F -8 °F (1989)
Degree Days  
Heating Degree Days 32    
Moisture  
Dew Point 28 °F    
Average Humidity 83    
Maximum Humidity 98    
Minimum Humidity 66    
Precipitation  
Precipitation 0.00 in - - ()
Sea Level Pressure  
Sea Level Pressure 29.56 in    
Wind  
Wind Speed 14 mph (NW)    
Max Wind Speed 32 mph    
Max Gust Speed 45 mph    
Visibility 7 miles    
Events Snow    
Averages and records for this station are not official NWS values.
T = Trace of Precipitation, MM = Missing Value Source: NWS Daily Summary

Daily Weather History Graph

Daily Weather History Graph

Search for Another Location

Airport or City:

Trip Planner

Search our weather history database for the weather conditions in past years. The results will help you decide how hot, cold, wet, or windy it might be!

Date:

Astronomy

Dec. 21, 2012 Rise Set
Actual Time 8:04 AM EST 5:12 PM EST
Civil Twilight 7:33 AM EST 5:44 PM EST
Nautical Twilight 6:57 AM EST 6:19 PM EST
Astronomical Twilight 6:23 AM EST 6:53 PM EST
Moon 1:02 PM EST (12/21) 1:46 AM EST (12/21)
Length of Visible Light 10h 10m
Length of Day
9h 07m
Waxing Gibbous, 64% of the Moon is Illuminated
Dec 21
Waxing Gibbous
Dec 28
Full
Jan 4
Last Quarter
Jan 11
New
Jan 18
First Quarter

Hourly Weather History & Observations

Time (EST) Temp. Windchill Dew Point Humidity Pressure Visibility Wind Dir Wind Speed Gust Speed Precip Events Conditions
12:15 AM 32.5 °F 27.1 °F 31.6 °F 96% 29.13 in 7.0 mi South 5.8 mph - N/A   Overcast
12:34 AM 32.7 °F 27.3 °F 31.6 °F 96% 29.13 in 4.0 mi SSE 5.8 mph - N/A Snow Light Snow
12:55 AM 32.4 °F 27.9 °F 31.5 °F 96% 29.13 in 2.0 mi SE 4.6 mph - N/A Snow Light Snow
1:15 AM 32.2 °F 28.9 °F 31.6 °F 98% 29.12 in 2.0 mi SE 3.5 mph - N/A Snow Light Snow
1:34 AM 32.2 °F - 31.6 °F 98% 29.13 in 2.5 mi Calm Calm - N/A Snow Light Snow
1:55 AM 32.2 °F - 31.6 °F 98% 29.14 in 3.0 mi Calm Calm - N/A Snow Light Snow
2:15 AM 32.5 °F - 32.0 °F 98% 29.14 in 4.0 mi Calm Calm - N/A   Overcast
2:34 AM 32.9 °F - 32.0 °F 96% 29.15 in 7.0 mi Calm Calm - N/A   Overcast
2:55 AM 32.9 °F 28.5 °F 32.0 °F 96% 29.17 in 7.0 mi North 4.6 mph - N/A   Overcast
3:15 AM 32.9 °F 26.7 °F 32.0 °F 96% 29.20 in 7.0 mi NW 6.9 mph - N/A   Overcast
3:34 AM 33.1 °F 26.1 °F 32.0 °F 96% 29.21 in 7.0 mi NW 8.1 mph - N/A Snow Light Snow
3:55 AM 33.4 °F 25.4 °F 32.0 °F 94% 29.23 in 5.0 mi WNW 10.4 mph - N/A Snow Light Snow
4:15 AM 33.4 °F 24.3 °F 32.0 °F 94% 29.24 in 5.0 mi WNW 12.7 mph 16.1 mph N/A Snow Light Snow
4:34 AM 33.3 °F 22.8 °F 32.0 °F 95% 29.26 in 3.0 mi WNW 16.1 mph 26.5 mph N/A Snow Light Snow
4:55 AM 33.1 °F 21.5 °F 31.5 °F 94% 29.28 in 5.0 mi WNW 19.6 mph 25.3 mph N/A Snow Light Snow
5:14 AM 32.5 °F 21.9 °F 31.1 °F 94% 29.30 in 2.0 mi WNW 16.1 mph 27.6 mph N/A Snow Light Snow
5:35 AM 32.2 °F 20.0 °F 31.1 °F 96% 29.31 in 2.0 mi WNW 20.7 mph 27.6 mph N/A Snow Light Snow
5:55 AM 32.0 °F 19.5 °F 30.2 °F 93% 29.33 in 2.0 mi NW 21.9 mph 35.7 mph N/A Snow Light Snow
6:14 AM 32.2 °F 19.4 °F 29.3 °F 89% 29.34 in 5.0 mi NW 23.0 mph 31.1 mph N/A Snow Light Snow
6:35 AM 32.5 °F 19.6 °F 28.8 °F 86% 29.36 in 10.0 mi NW 24.2 mph 38.0 mph N/A   Overcast
6:55 AM 32.2 °F 21.4 °F 29.7 °F 90% 29.38 in 5.0 mi WNW 16.1 mph 28.8 mph N/A Snow Light Snow
7:14 AM 32.4 °F 20.0 °F 29.1 °F 88% 29.39 in 10.0 mi WNW 21.9 mph 28.8 mph N/A Snow Light Snow
7:35 AM 32.5 °F 19.1 °F 28.2 °F 84% 29.40 in 10.0 mi NW 26.5 mph 31.1 mph N/A   Overcast
7:55 AM 32.5 °F 20.8 °F 27.5 °F 82% 29.41 in 10.0 mi NW 19.6 mph 28.8 mph N/A   Overcast
8:14 AM 32.4 °F 20.6 °F 27.0 °F 80% 29.43 in 10.0 mi NW 19.6 mph 33.4 mph N/A   Overcast
8:35 AM 32.4 °F 18.4 °F 26.4 °F 79% 29.45 in 10.0 mi NW 28.8 mph 42.6 mph N/A   Overcast
8:55 AM 32.0 °F 18.6 °F 26.8 °F 81% 29.45 in 10.0 mi NW 25.3 mph 33.4 mph N/A Snow Light Snow
9:14 AM 32.2 °F 19.1 °F 27.0 °F 81% 29.47 in 10.0 mi NW 24.2 mph 32.2 mph N/A   Overcast
9:35 AM 32.4 °F 20.0 °F 27.0 °F 80% 29.48 in 10.0 mi NW 21.9 mph 35.7 mph N/A Snow Light Snow
9:54 AM 32.4 °F 19.7 °F 27.3 °F 82% 29.50 in 3.0 mi NW 23.0 mph 33.4 mph N/A Snow Light Snow
10:14 AM 32.2 °F 22.3 °F 28.4 °F 86% 29.51 in 3.0 mi NNW 13.8 mph 25.3 mph N/A Snow Light Snow
10:35 AM 32.7 °F 22.1 °F 28.4 °F 84% 29.53 in 1.8 mi NW 16.1 mph 34.5 mph N/A Snow Light Snow
10:54 AM 33.1 °F 21.9 °F 28.0 °F 82% 29.54 in 4.0 mi NW 18.4 mph 29.9 mph N/A Snow Light Snow
11:15 AM 32.9 °F 19.6 °F 29.3 °F 87% 29.54 in 4.0 mi NW 26.5 mph 32.2 mph N/A Snow Light Snow
11:35 AM 33.8 °F 19.6 °F 28.0 °F 79% 29.54 in 5.0 mi NW 32.2 mph 38.0 mph N/A Snow Light Snow
11:54 AM 33.8 °F 20.8 °F 27.7 °F 78% 29.55 in 7.0 mi NW 26.5 mph 36.8 mph N/A Snow Light Snow
12:15 PM 33.4 °F 21.4 °F 27.7 °F 79% 29.56 in 5.0 mi NW 21.9 mph 44.9 mph N/A Snow Light Snow
12:35 PM 33.4 °F 21.1 °F 28.0 °F 81% 29.58 in 5.0 mi NW 23.0 mph 32.2 mph N/A Snow Light Snow
12:54 PM 33.3 °F 20.1 °F 27.7 °F 80% 29.59 in 2.5 mi NW 26.5 mph 38.0 mph N/A Snow Light Snow
1:15 PM 33.4 °F 21.7 °F 28.2 °F 81% 29.60 in 5.0 mi NW 20.7 mph 28.8 mph N/A Snow Light Snow
1:35 PM 33.1 °F 21.2 °F 28.2 °F 82% 29.61 in 2.5 mi NW 20.7 mph 34.5 mph N/A Snow Light Snow
1:54 PM 32.9 °F 22.8 °F 29.3 °F 87% 29.62 in 2.5 mi NW 15.0 mph 28.8 mph N/A Snow Light Snow
2:15 PM 32.7 °F 22.5 °F 29.5 °F 88% 29.63 in 3.0 mi NW 15.0 mph 25.3 mph N/A Snow Light Snow
2:35 PM 33.1 °F 20.9 °F 29.1 °F 85% 29.64 in 5.0 mi NW 21.9 mph 29.9 mph N/A Snow Light Snow
2:54 PM 33.1 °F 21.5 °F 28.0 °F 82% 29.66 in 5.0 mi NW 19.6 mph 34.5 mph N/A Snow Light Snow
3:15 PM 33.1 °F 20.6 °F 28.2 °F 82% 29.67 in 3.0 mi NW 23.0 mph 31.1 mph N/A Snow Light Snow
3:35 PM 33.3 °F 22.1 °F 27.5 °F 79% 29.69 in 7.0 mi NW 18.4 mph 32.2 mph N/A   Overcast
3:54 PM 33.8 °F 22.2 °F 26.1 °F 73% 29.71 in 10.0 mi NW 20.7 mph 33.4 mph N/A   Overcast
4:15 PM 33.4 °F 22.0 °F 26.1 °F 74% 29.72 in 10.0 mi NW 19.6 mph 32.2 mph N/A   Overcast
4:34 PM 33.3 °F 20.3 °F 26.4 °F 76% 29.73 in 10.0 mi NW 25.3 mph 32.2 mph N/A   Overcast
4:55 PM 32.9 °F 20.1 °F 26.4 °F 77% 29.75 in 10.0 mi NW 24.2 mph 36.8 mph N/A   Overcast
5:15 PM 32.9 °F 20.1 °F 26.6 °F 78% 29.77 in 10.0 mi NW 24.2 mph 34.5 mph N/A   Overcast
5:34 PM 32.9 °F 21.0 °F 26.4 °F 77% 29.78 in 10.0 mi NW 20.7 mph 32.2 mph N/A   Overcast
5:55 PM 32.9 °F 21.0 °F 26.4 °F 77% 29.80 in 10.0 mi NW 20.7 mph 31.1 mph N/A   Overcast
6:14 PM 32.9 °F 21.6 °F 26.1 °F 76% 29.81 in 10.0 mi NW 18.4 mph 32.2 mph N/A   Overcast
6:34 PM 32.9 °F 20.4 °F 25.9 °F 75% 29.82 in 10.0 mi NW 23.0 mph 32.2 mph N/A   Overcast
6:55 PM 32.9 °F 21.0 °F 25.7 °F 75% 29.84 in 10.0 mi NW 20.7 mph 32.2 mph N/A   Overcast
7:14 PM 32.5 °F 20.2 °F 25.7 °F 76% 29.85 in 10.0 mi NW 21.9 mph 32.2 mph N/A   Overcast
7:35 PM 32.7 °F 20.1 °F 25.0 °F 73% 29.86 in 10.0 mi NW 23.0 mph 34.5 mph N/A   Overcast
7:55 PM 32.5 °F 19.6 °F 24.8 °F 73% 29.87 in 10.0 mi NW 24.2 mph 34.5 mph N/A   Overcast
8:14 PM 32.7 °F 21.8 °F 24.4 °F 72% 29.88 in 10.0 mi NW 17.3 mph 34.5 mph N/A   Overcast
8:35 PM 32.5 °F 21.9 °F 24.8 °F 73% 29.89 in 10.0 mi NW 16.1 mph 26.5 mph N/A   Overcast
8:55 PM 32.4 °F 20.9 °F 24.4 °F 73% 29.90 in 10.0 mi NW 18.4 mph 28.8 mph N/A   Overcast
9:14 PM 32.5 °F 21.5 °F 23.4 °F 69% 29.91 in 10.0 mi NW 17.3 mph 33.4 mph N/A   Overcast
9:35 PM 32.2 °F 21.4 °F 23.9 °F 72% 29.92 in 10.0 mi NW 16.1 mph 27.6 mph N/A   Overcast
9:55 PM 32.2 °F 20.0 °F 23.9 °F 72% 29.93 in 10.0 mi NW 20.7 mph 28.8 mph N/A   Overcast
10:14 PM 32.2 °F 20.4 °F 23.2 °F 69% 29.94 in 10.0 mi NW 19.6 mph 24.2 mph N/A   Overcast
10:35 PM 32.0 °F 20.8 °F 23.4 °F 70% 29.94 in 10.0 mi NW 17.3 mph 25.3 mph N/A   Overcast
10:55 PM 32.0 °F 20.5 °F 22.5 °F 68% 29.95 in 10.0 mi NNW 18.4 mph 28.8 mph N/A   Overcast
11:14 PM 32.0 °F 21.2 °F 22.8 °F 69% 29.96 in 10.0 mi NW 16.1 mph 29.9 mph N/A   Overcast
11:35 PM 32.0 °F 21.2 °F 22.5 °F 68% 29.96 in 10.0 mi NW 16.1 mph 24.2 mph N/A   Overcast
11:54 PM 32.0 °F 20.5 °F 21.9 °F 66% 29.97 in 10.0 mi NW 18.4 mph 26.5 mph N/A   Overcast